To NAV CANADA Home Page Login to a new session Search on AWWS site Feedback and Comments Disclaimer Vers la page française équivalente Tips FAQ What's new on the site To the Forecasts and Observations / NOTAM section To "File a Flight Plan" website Publications and other links Update of the User's profile FIC Telephone Numbers My Weather Data Folder Route Weather Data Regional Weather Data Local Weather Data To the Forecasts and Observations / NOTAM section
Request Generated 08/28/2015 at 02:09:34 UTC . Weather information available at that time is displayed.

METAR/TAF

COMOX/BC    

METAR CYQQ 280200Z 12003KT 20SM BKN110 21/13 A2994 RMK AC7 SLP138=
METAR CYQQ 280100Z 17004KT 20SM BKN110 BKN250 22/13 A2995 RMK AC4CI1 SLP144=
METAR CYQQ 280000Z 14006KT 20SM FEW100 BKN250 23/12 A2997 RMK AC2CI1 ACSL SW SLP149=

TAF CYQQ 272339Z 2800/2824 14008KT P6SM FEW050 SCT120 BKN240
FM280400 14008KT P6SM BKN080 TEMPO 2809/2812 P6SM -SHRA
FM281200 14010KT P6SM BKN040 OVC080 TEMPO 2812/2821 P6SM -SHRA
BECMG 2816/2818 14015G25KT
FM282100 14018KT P6SM SCT040
RMK NXT FCST BY 280600Z=
Your time UTC time
Weather data provided by Environment Canada and NAV CANADA